Fries, Virginia
Current Conditions -  °F | °C
As of 11:15 AM on Friday 21 Nov 2014 (Local Time) from KHLX Reporting Station
Clear Clear  
Wind Chill: 20°   Ceiling: Unl
Heat Index: 30°   Visibility: 10mi
Dew Point:   Wind: 13mph
Humidity: 38%   Direction: 280°W
Pressure: 30.36"   Gusts: 16mph
Location:  36.72°N, 80.98°W
Report Text: KHLX 211615Z AUTO 28011G14KT 10SM CLR M01/M14 A3036 RMK AO2 T10091137
Loading
Personal Weather Stations






























Interactive Weather Map New forecast layout! Learn more

10-Day Weather Forecast

Advertisements
Track Severe Weather on mobile